This is the latest recevied weather packets stored in our database for station/object LRCK. If no packets are shown the sender has not sent any weather packets the latest 10 day(s).
| Time | Temp. | Humidity | Pressure | Rain* | Wind** | Luminosity | Snow |
|---|---|---|---|---|---|---|---|
| 1777283297 | 12.22° C | 38% | 1026 hPa | - | - | - | - |
| 1777282397 | 12.22° C | 38% | 1026 hPa | - | - | - | - |
| 1777281498 | 12.22° C | 33% | 1026 hPa | - | - | - | - |
| 1777280597 | 12.22° C | 33% | 1026 hPa | - | - | - | - |
| 1777279697 | 12.22° C | 35% | 1026 hPa | - | - | - | - |
| 1777278798 | 12.22° C | 35% | 1026 hPa | - | - | - | - |
| 1777277898 | 11.11° C | 41% | 1026 hPa | - | - | - | - |
| 1777276998 | 11.11° C | 41% | 1026 hPa | - | - | - | - |
| 1777276097 | 11.11° C | 32% | 1026 hPa | - | - | - | - |
| 1777275198 | 11.11° C | 32% | 1026 hPa | - | - | - | - |
| 1777274298 | 10° C | 37% | 1026 hPa | - | - | - | - |
| 1777273398 | 10° C | 37% | 1026 hPa | - | - | - | - |
| 1777272497 | 8.89° C | 37% | 1026 hPa | - | - | - | - |
| 1777271598 | 8.89° C | 37% | 1026 hPa | - | - | - | - |
| 1777270698 | 7.78° C | 40% | 1025 hPa | - | - | - | - |
| 1777269797 | 7.78° C | 40% | 1025 hPa | - | - | - | - |
| 1777268894 | 7.78° C | 40% | 1025 hPa | - | - | - | - |
| 1777267997 | 7.78° C | 40% | 1025 hPa | - | - | - | - |
| 1777267097 | 7.78° C | 40% | 1025 hPa | - | - | - | - |
| 1777266220 | 7.78° C | 40% | 1025 hPa | - | - | - | - |
| 1777265298 | 6.11° C | 53% | 1025 hPa | - | - | - | - |
| 1777264474 | 6.11° C | 53% | 1025 hPa | - | - | - | - |
| 1777263497 | 3.89° C | 56% | 1024 hPa | - | - | - | - |
| 1777262597 | 3.89° C | 56% | 1024 hPa | - | - | - | - |
| 1777261697 | 2.22° C | 65% | 1024 hPa | - | - | - | - |
* Rain since midnight (hover to see other rain measurements)
** Current wind speed in m/s (hover to see current wind gust speed)